Aeroporto :
LOGIN :

Iscrizione | Disclaimer

   EN    FR    IT 

 










Sommario :    VFR   VFR Marginale   IFR   IFR Intensivo   IFR Molto Intensivo
Visibilità : 
Base nubi : 
>= 8 km
>= 3000ft
5 / 8 km
1000 / 3000 ft
1500m / 5 km
500 / 1000 ft
800 / 1500m
200 / 500 ft
< 800m
< 200 ft
Simboli :   Temporali  Nebbia  Neve Forte  Precipitazioni Forti  Vento > 20 kt
SIGMETs :   Varie  Temporali  Ghiacco  Turbolenza  Onda orograficha  Ceneri Vulcaniche







- Altitudine del aeroporto : 297 ft
- Codice IATA : ODB


LEBA - Córdoba

ULTIMO METAR :
  • 181930Z AUTO 00000KT 9999 NCD 32/13 Q1014

METARs OBSOLETI :
  • 181900Z AUTO 29006KT 9999 NCD 34/12 Q1013
  • 181830Z AUTO 29007KT 9999 NCD 36/11 Q1013
  • 181800Z 27006KT CAVOK 37/11 Q1013
  • 181730Z 27008KT CAVOK 37/11 Q1013
  • 181700Z 22005KT 160V290 CAVOK 38/10 Q1013
  • 181630Z 23005KT 160V300 CAVOK 39/10 Q1013

TAF TAF LEBA
Valido dal 18 a 18 ore il 19 a 03 ore UTC


181700Z 1818/1903 23012KT CAVOK
PROB30
TEMPO 1819/1822 24015G25KT
Nessun NOTAM noto per questo aeroporto.



MetMap, La meteo Aeronautica in un colpo d'occhio ! - Copyright ORBIFLY Dicembre 2007 - Disclaimer

ORBIFLY MET'MAP TEAM :

Programmazione e sviluppo : Alexandra Zaïnal
Concezione e sviluppo : Baudouin d'Aumeries
Co-Programmazione e sviluppo : Marc-Olivier Méhu
Supporto tecnico e logistico : Manuel Goepfert
Aiuto per la traduzione : Arnaldo La Scala

Contatto : metmap@orbifly.com




FONTI E CREDITI :

   NOAA